sensor_id;sensor_type;location;lat;lon;timestamp;P1;durP1;ratioP1;P2;durP2;ratioP2
76714;SDS011;65644;44.990;20.288;2023-04-15T00:00:04;63.97;;;29.90;;
76714;SDS011;65644;44.990;20.288;2023-04-15T00:02:31;49.50;;;23.20;;
76714;SDS011;65644;44.990;20.288;2023-04-15T00:04:57;208.43;;;71.53;;
76714;SDS011;65644;44.990;20.288;2023-04-15T00:07:23;198.25;;;76.32;;
76714;SDS011;65644;44.990;20.288;2023-04-15T00:09:49;251.02;;;100.95;;
76714;SDS011;65644;44.990;20.288;2023-04-15T00:12:19;33.13;;;19.27;;
76714;SDS011;65644;44.990;20.288;2023-04-15T00:14:45;11.70;;;8.90;;
76714;SDS011;65644;44.990;20.288;2023-04-15T00:17:11;10.20;;;7.65;;
76714;SDS011;65644;44.990;20.288;2023-04-15T00:19:38;8.70;;;7.10;;
76714;SDS011;65644;44.990;20.288;2023-04-15T00:22:04;8.48;;;7.68;;
76714;SDS011;65644;44.990;20.288;2023-04-15T00:24:31;9.50;;;7.15;;
76714;SDS011;65644;44.990;20.288;2023-04-15T00:26:57;8.38;;;7.47;;
76714;SDS011;65644;44.990;20.288;2023-04-15T00:29:23;8.15;;;7.32;;
76714;SDS011;65644;44.990;20.288;2023-04-15T00:31:50;8.75;;;7.85;;
76714;SDS011;65644;44.990;20.288;2023-04-15T00:34:16;8.00;;;7.22;;
76714;SDS011;65644;44.990;20.288;2023-04-15T00:36:42;11.38;;;9.07;;
76714;SDS011;65644;44.990;20.288;2023-04-15T00:39:08;8.32;;;7.53;;
76714;SDS011;65644;44.990;20.288;2023-04-15T00:41:34;13.50;;;11.38;;
76714;SDS011;65644;44.990;20.288;2023-04-15T00:44:04;12.02;;;10.70;;
76714;SDS011;65644;44.990;20.288;2023-04-15T00:46:30;11.98;;;10.77;;
76714;SDS011;65644;44.990;20.288;2023-04-15T00:48:58;11.35;;;9.23;;
76714;SDS011;65644;44.990;20.288;2023-04-15T00:51:25;13.73;;;12.32;;
76714;SDS011;65644;44.990;20.288;2023-04-15T00:53:51;14.80;;;12.35;;
76714;SDS011;65644;44.990;20.288;2023-04-15T00:56:17;9.40;;;8.48;;
76714;SDS011;65644;44.990;20.288;2023-04-15T00:58:44;9.02;;;8.00;;
76714;SDS011;65644;44.990;20.288;2023-04-15T01:01:10;13.85;;;10.20;;
76714;SDS011;65644;44.990;20.288;2023-04-15T01:03:36;14.75;;;10.48;;
76714;SDS011;65644;44.990;20.288;2023-04-15T01:06:02;11.25;;;8.20;;
76714;SDS011;65644;44.990;20.288;2023-04-15T01:08:28;8.38;;;7.43;;
76714;SDS011;65644;44.990;20.288;2023-04-15T01:10:55;8.02;;;7.18;;
76714;SDS011;65644;44.990;20.288;2023-04-15T01:13:22;8.82;;;6.57;;
76714;SDS011;65644;44.990;20.288;2023-04-15T01:15:49;8.07;;;7.28;;
76714;SDS011;65644;44.990;20.288;2023-04-15T01:18:15;9.32;;;7.57;;
76714;SDS011;65644;44.990;20.288;2023-04-15T01:20:41;16.80;;;8.57;;
76714;SDS011;65644;44.990;20.288;2023-04-15T01:23:08;9.27;;;7.68;;
76714;SDS011;65644;44.990;20.288;2023-04-15T01:25:34;10.57;;;7.82;;
76714;SDS011;65644;44.990;20.288;2023-04-15T01:28:01;9.02;;;7.60;;
76714;SDS011;65644;44.990;20.288;2023-04-15T01:30:27;13.85;;;8.43;;
76714;SDS011;65644;44.990;20.288;2023-04-15T01:32:53;11.00;;;8.60;;
76714;SDS011;65644;44.990;20.288;2023-04-15T01:35:20;37.72;;;24.58;;
76714;SDS011;65644;44.990;20.288;2023-04-15T01:37:46;105.15;;;67.38;;
76714;SDS011;65644;44.990;20.288;2023-04-15T01:40:12;29.83;;;22.27;;
76714;SDS011;65644;44.990;20.288;2023-04-15T01:42:39;23.50;;;19.25;;
76714;SDS011;65644;44.990;20.288;2023-04-15T01:45:05;20.73;;;16.23;;
76714;SDS011;65644;44.990;20.288;2023-04-15T01:47:32;12.98;;;11.52;;
76714;SDS011;65644;44.990;20.288;2023-04-15T01:49:58;12.73;;;11.10;;
76714;SDS011;65644;44.990;20.288;2023-04-15T01:52:24;13.10;;;11.68;;
76714;SDS011;65644;44.990;20.288;2023-04-15T01:54:50;14.15;;;11.77;;
76714;SDS011;65644;44.990;20.288;2023-04-15T01:57:16;13.23;;;11.05;;
76714;SDS011;65644;44.990;20.288;2023-04-15T01:59:42;14.32;;;11.75;;
76714;SDS011;65644;44.990;20.288;2023-04-15T02:02:08;16.42;;;12.93;;
76714;SDS011;65644;44.990;20.288;2023-04-15T02:04:34;15.77;;;13.48;;
76714;SDS011;65644;44.990;20.288;2023-04-15T02:07:00;17.60;;;13.18;;
76714;SDS011;65644;44.990;20.288;2023-04-15T02:09:26;16.23;;;13.52;;
76714;SDS011;65644;44.990;20.288;2023-04-15T02:11:52;15.45;;;13.35;;
76714;SDS011;65644;44.990;20.288;2023-04-15T02:14:18;29.70;;;20.63;;
76714;SDS011;65644;44.990;20.288;2023-04-15T02:16:45;17.50;;;14.60;;
76714;SDS011;65644;44.990;20.288;2023-04-15T02:19:11;18.05;;;13.80;;
76714;SDS011;65644;44.990;20.288;2023-04-15T02:21:37;16.92;;;12.65;;
76714;SDS011;65644;44.990;20.288;2023-04-15T02:24:04;16.00;;;11.95;;
76714;SDS011;65644;44.990;20.288;2023-04-15T02:26:30;10.10;;;8.13;;
76714;SDS011;65644;44.990;20.288;2023-04-15T02:28:57;8.48;;;7.00;;
76714;SDS011;65644;44.990;20.288;2023-04-15T02:31:23;9.00;;;8.10;;
76714;SDS011;65644;44.990;20.288;2023-04-15T02:33:50;11.07;;;8.07;;
76714;SDS011;65644;44.990;20.288;2023-04-15T02:36:16;9.23;;;8.30;;
76714;SDS011;65644;44.990;20.288;2023-04-15T02:38:42;10.25;;;7.72;;
76714;SDS011;65644;44.990;20.288;2023-04-15T02:41:08;8.85;;;7.63;;
76714;SDS011;65644;44.990;20.288;2023-04-15T02:43:34;9.23;;;8.18;;
76714;SDS011;65644;44.990;20.288;2023-04-15T02:46:00;8.25;;;7.30;;
76714;SDS011;65644;44.990;20.288;2023-04-15T02:48:26;8.57;;;7.60;;
76714;SDS011;65644;44.990;20.288;2023-04-15T02:50:53;13.80;;;9.63;;
76714;SDS011;65644;44.990;20.288;2023-04-15T02:53:19;17.25;;;11.65;;
76714;SDS011;65644;44.990;20.288;2023-04-15T02:55:45;12.00;;;8.82;;
76714;SDS011;65644;44.990;20.288;2023-04-15T02:58:11;11.50;;;9.88;;
76714;SDS011;65644;44.990;20.288;2023-04-15T03:00:37;12.63;;;10.05;;
76714;SDS011;65644;44.990;20.288;2023-04-15T03:03:04;10.30;;;9.30;;
76714;SDS011;65644;44.990;20.288;2023-04-15T03:05:30;11.82;;;10.45;;
76714;SDS011;65644;44.990;20.288;2023-04-15T03:07:56;12.30;;;10.00;;
76714;SDS011;65644;44.990;20.288;2023-04-15T03:10:22;11.98;;;10.27;;
76714;SDS011;65644;44.990;20.288;2023-04-15T03:12:48;10.75;;;9.60;;
76714;SDS011;65644;44.990;20.288;2023-04-15T03:15:14;12.85;;;10.68;;
76714;SDS011;65644;44.990;20.288;2023-04-15T03:17:41;13.02;;;10.48;;
76714;SDS011;65644;44.990;20.288;2023-04-15T03:20:07;13.70;;;11.68;;
76714;SDS011;65644;44.990;20.288;2023-04-15T03:22:34;15.48;;;11.63;;
76714;SDS011;65644;44.990;20.288;2023-04-15T03:25:00;14.13;;;11.68;;
76714;SDS011;65644;44.990;20.288;2023-04-15T03:27:26;14.30;;;12.05;;
76714;SDS011;65644;44.990;20.288;2023-04-15T03:29:52;17.25;;;12.80;;
76714;SDS011;65644;44.990;20.288;2023-04-15T03:32:18;14.95;;;12.40;;
76714;SDS011;65644;44.990;20.288;2023-04-15T03:34:44;14.20;;;12.70;;
76714;SDS011;65644;44.990;20.288;2023-04-15T03:37:10;14.73;;;11.93;;
76714;SDS011;65644;44.990;20.288;2023-04-15T03:39:36;14.25;;;12.05;;
76714;SDS011;65644;44.990;20.288;2023-04-15T03:42:02;13.07;;;11.65;;
76714;SDS011;65644;44.990;20.288;2023-04-15T03:44:29;14.68;;;10.80;;
76714;SDS011;65644;44.990;20.288;2023-04-15T03:46:55;14.63;;;12.50;;
76714;SDS011;65644;44.990;20.288;2023-04-15T03:49:21;15.15;;;12.45;;
76714;SDS011;65644;44.990;20.288;2023-04-15T03:51:47;21.58;;;14.77;;
76714;SDS011;65644;44.990;20.288;2023-04-15T03:54:13;17.55;;;13.00;;
76714;SDS011;65644;44.990;20.288;2023-04-15T03:56:39;17.20;;;13.80;;
76714;SDS011;65644;44.990;20.288;2023-04-15T03:59:05;18.17;;;12.85;;
76714;SDS011;65644;44.990;20.288;2023-04-15T04:01:32;13.57;;;11.57;;
76714;SDS011;65644;44.990;20.288;2023-04-15T04:03:58;17.13;;;12.55;;
76714;SDS011;65644;44.990;20.288;2023-04-15T04:06:24;15.20;;;11.95;;
76714;SDS011;65644;44.990;20.288;2023-04-15T04:08:50;21.70;;;13.02;;
76714;SDS011;65644;44.990;20.288;2023-04-15T04:11:16;15.85;;;12.38;;
76714;SDS011;65644;44.990;20.288;2023-04-15T04:13:42;17.67;;;13.05;;
76714;SDS011;65644;44.990;20.288;2023-04-15T04:16:08;19.25;;;13.85;;
76714;SDS011;65644;44.990;20.288;2023-04-15T04:18:34;19.58;;;15.07;;
76714;SDS011;65644;44.990;20.288;2023-04-15T04:21:01;19.37;;;14.43;;
76714;SDS011;65644;44.990;20.288;2023-04-15T04:23:27;18.17;;;14.90;;
76714;SDS011;65644;44.990;20.288;2023-04-15T04:25:53;18.00;;;14.52;;
76714;SDS011;65644;44.990;20.288;2023-04-15T04:28:19;20.13;;;15.90;;
76714;SDS011;65644;44.990;20.288;2023-04-15T04:30:45;25.33;;;18.50;;
76714;SDS011;65644;44.990;20.288;2023-04-15T04:33:11;22.10;;;17.83;;
76714;SDS011;65644;44.990;20.288;2023-04-15T04:35:37;33.42;;;22.70;;
76714;SDS011;65644;44.990;20.288;2023-04-15T04:38:03;22.83;;;16.27;;
76714;SDS011;65644;44.990;20.288;2023-04-15T04:40:30;23.35;;;16.20;;
76714;SDS011;65644;44.990;20.288;2023-04-15T04:42:56;26.67;;;16.33;;
76714;SDS011;65644;44.990;20.288;2023-04-15T04:45:22;22.98;;;16.05;;
76714;SDS011;65644;44.990;20.288;2023-04-15T04:47:48;20.48;;;14.65;;
76714;SDS011;65644;44.990;20.288;2023-04-15T04:50:14;20.23;;;12.65;;
76714;SDS011;65644;44.990;20.288;2023-04-15T04:52:40;22.00;;;13.63;;
76714;SDS011;65644;44.990;20.288;2023-04-15T04:55:06;16.90;;;10.85;;
76714;SDS011;65644;44.990;20.288;2023-04-15T04:57:32;17.23;;;11.32;;
76714;SDS011;65644;44.990;20.288;2023-04-15T05:00:03;15.27;;;10.85;;
76714;SDS011;65644;44.990;20.288;2023-04-15T05:02:30;16.42;;;9.05;;
76714;SDS011;65644;44.990;20.288;2023-04-15T05:04:56;17.63;;;11.07;;
76714;SDS011;65644;44.990;20.288;2023-04-15T05:07:22;15.73;;;10.27;;
76714;SDS011;65644;44.990;20.288;2023-04-15T05:09:48;12.02;;;8.05;;
76714;SDS011;65644;44.990;20.288;2023-04-15T05:12:14;15.65;;;8.02;;
76714;SDS011;65644;44.990;20.288;2023-04-15T05:14:42;13.70;;;7.97;;
76714;SDS011;65644;44.990;20.288;2023-04-15T05:17:08;12.80;;;8.43;;
76714;SDS011;65644;44.990;20.288;2023-04-15T05:19:35;11.23;;;6.30;;
76714;SDS011;65644;44.990;20.288;2023-04-15T05:22:01;9.48;;;5.55;;
76714;SDS011;65644;44.990;20.288;2023-04-15T05:24:27;7.82;;;4.85;;
76714;SDS011;65644;44.990;20.288;2023-04-15T05:26:53;7.40;;;5.22;;
76714;SDS011;65644;44.990;20.288;2023-04-15T05:29:20;15.85;;;6.82;;
76714;SDS011;65644;44.990;20.288;2023-04-15T05:31:46;19.63;;;8.98;;
76714;SDS011;65644;44.990;20.288;2023-04-15T05:34:12;28.67;;;12.63;;
76714;SDS011;65644;44.990;20.288;2023-04-15T05:36:40;24.60;;;9.48;;
76714;SDS011;65644;44.990;20.288;2023-04-15T05:39:06;15.93;;;7.65;;
76714;SDS011;65644;44.990;20.288;2023-04-15T05:41:33;17.38;;;8.50;;
76714;SDS011;65644;44.990;20.288;2023-04-15T05:43:59;13.75;;;8.00;;
76714;SDS011;65644;44.990;20.288;2023-04-15T05:46:25;8.25;;;5.18;;
76714;SDS011;65644;44.990;20.288;2023-04-15T05:48:51;11.68;;;5.30;;
76714;SDS011;65644;44.990;20.288;2023-04-15T05:51:17;10.02;;;5.00;;
76714;SDS011;65644;44.990;20.288;2023-04-15T05:53:43;13.60;;;6.40;;
76714;SDS011;65644;44.990;20.288;2023-04-15T05:56:10;12.57;;;5.43;;
76714;SDS011;65644;44.990;20.288;2023-04-15T05:58:37;11.07;;;5.50;;
76714;SDS011;65644;44.990;20.288;2023-04-15T06:01:03;9.95;;;4.70;;
76714;SDS011;65644;44.990;20.288;2023-04-15T06:03:29;9.38;;;4.57;;
76714;SDS011;65644;44.990;20.288;2023-04-15T06:05:55;9.82;;;4.07;;
76714;SDS011;65644;44.990;20.288;2023-04-15T06:08:21;7.18;;;3.58;;
76714;SDS011;65644;44.990;20.288;2023-04-15T06:10:47;8.27;;;3.75;;
76714;SDS011;65644;44.990;20.288;2023-04-15T06:13:13;7.75;;;4.72;;
76714;SDS011;65644;44.990;20.288;2023-04-15T06:15:41;6.68;;;4.18;;
76714;SDS011;65644;44.990;20.288;2023-04-15T06:18:07;4.72;;;3.13;;
76714;SDS011;65644;44.990;20.288;2023-04-15T06:20:33;7.03;;;3.47;;
76714;SDS011;65644;44.990;20.288;2023-04-15T06:22:59;5.07;;;2.95;;
76714;SDS011;65644;44.990;20.288;2023-04-15T06:25:25;4.25;;;2.60;;
76714;SDS011;65644;44.990;20.288;2023-04-15T06:27:51;4.95;;;2.70;;
76714;SDS011;65644;44.990;20.288;2023-04-15T06:30:17;4.82;;;2.53;;
76714;SDS011;65644;44.990;20.288;2023-04-15T06:32:43;4.90;;;2.63;;
76714;SDS011;65644;44.990;20.288;2023-04-15T06:35:10;6.07;;;2.53;;
76714;SDS011;65644;44.990;20.288;2023-04-15T06:37:36;3.72;;;2.30;;
76714;SDS011;65644;44.990;20.288;2023-04-15T06:40:02;4.60;;;2.63;;
76714;SDS011;65644;44.990;20.288;2023-04-15T06:42:29;5.63;;;2.65;;
76714;SDS011;65644;44.990;20.288;2023-04-15T06:44:55;3.65;;;2.17;;
76714;SDS011;65644;44.990;20.288;2023-04-15T06:47:21;2.83;;;1.85;;
76714;SDS011;65644;44.990;20.288;2023-04-15T06:49:47;4.30;;;1.40;;
76714;SDS011;65644;44.990;20.288;2023-04-15T06:52:13;2.30;;;1.63;;
76714;SDS011;65644;44.990;20.288;2023-04-15T06:54:40;2.33;;;1.17;;
76714;SDS011;65644;44.990;20.288;2023-04-15T06:57:06;3.65;;;1.23;;
76714;SDS011;65644;44.990;20.288;2023-04-15T06:59:33;4.80;;;0.90;;
76714;SDS011;65644;44.990;20.288;2023-04-15T07:01:59;3.20;;;1.00;;
76714;SDS011;65644;44.990;20.288;2023-04-15T07:04:26;1.90;;;1.08;;
76714;SDS011;65644;44.990;20.288;2023-04-15T07:06:52;3.40;;;1.30;;
76714;SDS011;65644;44.990;20.288;2023-04-15T07:09:20;2.85;;;1.35;;
76714;SDS011;65644;44.990;20.288;2023-04-15T07:11:46;2.50;;;1.02;;
76714;SDS011;65644;44.990;20.288;2023-04-15T07:14:12;1.77;;;0.85;;
76714;SDS011;65644;44.990;20.288;2023-04-15T07:16:38;1.67;;;0.75;;
76714;SDS011;65644;44.990;20.288;2023-04-15T07:19:04;2.00;;;0.90;;
76714;SDS011;65644;44.990;20.288;2023-04-15T07:21:31;2.08;;;0.82;;
76714;SDS011;65644;44.990;20.288;2023-04-15T07:23:57;1.50;;;0.68;;
76714;SDS011;65644;44.990;20.288;2023-04-15T07:26:23;1.17;;;0.82;;
76714;SDS011;65644;44.990;20.288;2023-04-15T07:28:49;3.08;;;0.70;;
76714;SDS011;65644;44.990;20.288;2023-04-15T07:31:15;2.10;;;0.80;;
76714;SDS011;65644;44.990;20.288;2023-04-15T07:33:41;2.55;;;0.50;;
76714;SDS011;65644;44.990;20.288;2023-04-15T07:36:08;0.52;;;0.20;;
76714;SDS011;65644;44.990;20.288;2023-04-15T07:38:34;1.33;;;0.40;;
76714;SDS011;65644;44.990;20.288;2023-04-15T07:41:00;2.47;;;0.45;;
76714;SDS011;65644;44.990;20.288;2023-04-15T07:43:26;2.55;;;0.45;;
76714;SDS011;65644;44.990;20.288;2023-04-15T07:45:52;2.05;;;0.50;;
76714;SDS011;65644;44.990;20.288;2023-04-15T07:48:19;1.40;;;0.32;;
76714;SDS011;65644;44.990;20.288;2023-04-15T07:50:45;1.05;;;0.30;;
76714;SDS011;65644;44.990;20.288;2023-04-15T07:53:11;0.52;;;0.22;;
76714;SDS011;65644;44.990;20.288;2023-04-15T07:55:37;0.85;;;0.20;;
76714;SDS011;65644;44.990;20.288;2023-04-15T07:58:03;2.88;;;0.40;;
76714;SDS011;65644;44.990;20.288;2023-04-15T08:00:29;1.42;;;0.28;;
76714;SDS011;65644;44.990;20.288;2023-04-15T08:02:56;1.38;;;0.30;;
76714;SDS011;65644;44.990;20.288;2023-04-15T08:05:23;1.38;;;0.40;;
76714;SDS011;65644;44.990;20.288;2023-04-15T08:07:49;2.67;;;0.35;;
76714;SDS011;65644;44.990;20.288;2023-04-15T08:10:15;2.42;;;0.35;;
76714;SDS011;65644;44.990;20.288;2023-04-15T08:12:42;2.28;;;0.50;;
76714;SDS011;65644;44.990;20.288;2023-04-15T08:15:08;2.38;;;0.20;;
76714;SDS011;65644;44.990;20.288;2023-04-15T08:17:34;1.38;;;0.50;;
76714;SDS011;65644;44.990;20.288;2023-04-15T08:20:00;1.30;;;0.20;;
76714;SDS011;65644;44.990;20.288;2023-04-15T08:22:26;1.38;;;0.40;;
76714;SDS011;65644;44.990;20.288;2023-04-15T08:24:52;3.28;;;0.88;;
76714;SDS011;65644;44.990;20.288;2023-04-15T08:27:18;2.08;;;1.20;;
76714;SDS011;65644;44.990;20.288;2023-04-15T08:29:44;3.17;;;0.43;;
76714;SDS011;65644;44.990;20.288;2023-04-15T08:32:11;3.13;;;0.60;;
76714;SDS011;65644;44.990;20.288;2023-04-15T08:34:37;2.17;;;0.57;;
76714;SDS011;65644;44.990;20.288;2023-04-15T08:37:03;2.40;;;0.68;;
76714;SDS011;65644;44.990;20.288;2023-04-15T08:39:29;2.65;;;0.47;;
76714;SDS011;65644;44.990;20.288;2023-04-15T08:41:55;1.35;;;0.30;;
76714;SDS011;65644;44.990;20.288;2023-04-15T08:44:25;1.33;;;0.20;;
76714;SDS011;65644;44.990;20.288;2023-04-15T08:46:53;2.50;;;0.40;;
76714;SDS011;65644;44.990;20.288;2023-04-15T08:49:21;2.58;;;0.60;;
76714;SDS011;65644;44.990;20.288;2023-04-15T08:51:48;1.50;;;0.20;;
76714;SDS011;65644;44.990;20.288;2023-04-15T08:54:14;0.38;;;0.20;;
76714;SDS011;65644;44.990;20.288;2023-04-15T08:56:41;2.00;;;0.30;;
76714;SDS011;65644;44.990;20.288;2023-04-15T08:59:07;2.58;;;0.20;;
76714;SDS011;65644;44.990;20.288;2023-04-15T09:01:33;3.13;;;0.10;;
76714;SDS011;65644;44.990;20.288;2023-04-15T09:04:01;0.35;;;0.00;;
76714;SDS011;65644;44.990;20.288;2023-04-15T09:06:27;1.13;;;0.03;;
76714;SDS011;65644;44.990;20.288;2023-04-15T09:08:53;0.63;;;0.00;;
76714;SDS011;65644;44.990;20.288;2023-04-15T09:11:20;0.73;;;0.10;;
76714;SDS011;65644;44.990;20.288;2023-04-15T09:13:47;7.25;;;2.60;;
76714;SDS011;65644;44.990;20.288;2023-04-15T09:16:14;2.80;;;0.57;;
76714;SDS011;65644;44.990;20.288;2023-04-15T09:18:40;1.58;;;0.30;;
76714;SDS011;65644;44.990;20.288;2023-04-15T09:21:06;1.77;;;0.70;;
76714;SDS011;65644;44.990;20.288;2023-04-15T09:23:35;16.85;;;7.78;;
76714;SDS011;65644;44.990;20.288;2023-04-15T09:26:01;6.13;;;2.47;;
76714;SDS011;65644;44.990;20.288;2023-04-15T09:28:28;26.20;;;13.20;;
76714;SDS011;65644;44.990;20.288;2023-04-15T09:30:55;1.88;;;0.90;;
76714;SDS011;65644;44.990;20.288;2023-04-15T09:33:21;1.25;;;0.10;;
76714;SDS011;65644;44.990;20.288;2023-04-15T09:36:00;2.25;;;0.10;;
76714;SDS011;65644;44.990;20.288;2023-04-15T09:38:27;0.20;;;0.00;;
76714;SDS011;65644;44.990;20.288;2023-04-15T09:40:54;2.75;;;0.22;;
76714;SDS011;65644;44.990;20.288;2023-04-15T09:43:20;0.80;;;0.40;;
76714;SDS011;65644;44.990;20.288;2023-04-15T09:45:47;2.05;;;0.50;;
76714;SDS011;65644;44.990;20.288;2023-04-15T09:48:17;0.85;;;0.25;;
76714;SDS011;65644;44.990;20.288;2023-04-15T09:50:45;1.40;;;0.43;;
76714;SDS011;65644;44.990;20.288;2023-04-15T09:53:19;1.40;;;0.50;;
76714;SDS011;65644;44.990;20.288;2023-04-15T09:55:48;1.60;;;0.30;;
76714;SDS011;65644;44.990;20.288;2023-04-15T09:58:18;1.05;;;0.20;;
76714;SDS011;65644;44.990;20.288;2023-04-15T10:00:47;2.67;;;0.40;;
76714;SDS011;65644;44.990;20.288;2023-04-15T10:03:16;0.75;;;0.20;;
76714;SDS011;65644;44.990;20.288;2023-04-15T10:05:43;0.75;;;0.45;;
76714;SDS011;65644;44.990;20.288;2023-04-15T10:08:10;0.28;;;0.13;;
76714;SDS011;65644;44.990;20.288;2023-04-15T10:10:37;0.93;;;0.13;;
76714;SDS011;65644;44.990;20.288;2023-04-15T10:13:03;0.85;;;0.30;;
76714;SDS011;65644;44.990;20.288;2023-04-15T10:15:32;2.00;;;0.10;;
76714;SDS011;65644;44.990;20.288;2023-04-15T10:17:59;1.85;;;0.20;;
76714;SDS011;65644;44.990;20.288;2023-04-15T10:20:26;1.08;;;0.20;;
76714;SDS011;65644;44.990;20.288;2023-04-15T10:22:54;0.25;;;0.05;;
76714;SDS011;65644;44.990;20.288;2023-04-15T10:25:20;0.73;;;0.15;;
76714;SDS011;65644;44.990;20.288;2023-04-15T10:27:47;1.85;;;0.10;;
76714;SDS011;65644;44.990;20.288;2023-04-15T10:30:13;0.47;;;0.03;;
76714;SDS011;65644;44.990;20.288;2023-04-15T10:32:40;0.20;;;0.00;;
76714;SDS011;65644;44.990;20.288;2023-04-15T10:35:06;0.25;;;0.08;;
76714;SDS011;65644;44.990;20.288;2023-04-15T10:37:36;2.42;;;0.20;;
76714;SDS011;65644;44.990;20.288;2023-04-15T10:40:22;2.00;;;0.20;;
76714;SDS011;65644;44.990;20.288;2023-04-15T10:42:49;2.20;;;0.20;;
76714;SDS011;65644;44.990;20.288;2023-04-15T10:45:15;1.45;;;0.25;;
76714;SDS011;65644;44.990;20.288;2023-04-15T10:47:43;0.20;;;0.08;;
76714;SDS011;65644;44.990;20.288;2023-04-15T10:50:09;0.30;;;0.10;;
76714;SDS011;65644;44.990;20.288;2023-04-15T10:52:36;1.75;;;0.13;;
76714;SDS011;65644;44.990;20.288;2023-04-15T10:55:18;1.30;;;0.25;;
76714;SDS011;65644;44.990;20.288;2023-04-15T10:57:45;2.88;;;0.50;;
76714;SDS011;65644;44.990;20.288;2023-04-15T11:00:12;0.55;;;0.10;;
76714;SDS011;65644;44.990;20.288;2023-04-15T11:05:18;0.85;;;0.20;;
76714;SDS011;65644;44.990;20.288;2023-04-15T11:07:49;0.82;;;0.43;;
76714;SDS011;65644;44.990;20.288;2023-04-15T11:12:57;0.82;;;0.40;;
76714;SDS011;65644;44.990;20.288;2023-04-15T11:17:56;1.40;;;0.50;;
76714;SDS011;65644;44.990;20.288;2023-04-15T11:20:23;1.05;;;0.10;;
76714;SDS011;65644;44.990;20.288;2023-04-15T11:22:49;0.75;;;0.22;;
76714;SDS011;65644;44.990;20.288;2023-04-15T11:25:26;1.10;;;0.40;;
76714;SDS011;65644;44.990;20.288;2023-04-15T11:27:53;0.93;;;0.30;;
76714;SDS011;65644;44.990;20.288;2023-04-15T11:32:46;1.90;;;0.20;;
76714;SDS011;65644;44.990;20.288;2023-04-15T11:35:12;0.90;;;0.08;;
76714;SDS011;65644;44.990;20.288;2023-04-15T11:37:38;0.43;;;0.22;;
76714;SDS011;65644;44.990;20.288;2023-04-15T11:40:04;0.30;;;0.10;;
76714;SDS011;65644;44.990;20.288;2023-04-15T11:42:31;0.90;;;0.15;;
76714;SDS011;65644;44.990;20.288;2023-04-15T11:47:33;1.08;;;0.20;;
76714;SDS011;65644;44.990;20.288;2023-04-15T11:53:03;1.85;;;0.20;;
76714;SDS011;65644;44.990;20.288;2023-04-15T11:55:28;1.15;;;0.28;;
76714;SDS011;65644;44.990;20.288;2023-04-15T12:00:37;0.47;;;0.13;;
76714;SDS011;65644;44.990;20.288;2023-04-15T12:06:01;0.20;;;0.10;;
76714;SDS011;65644;44.990;20.288;2023-04-15T12:13:42;2.08;;;0.28;;
76714;SDS011;65644;44.990;20.288;2023-04-15T12:16:08;1.95;;;0.13;;
76714;SDS011;65644;44.990;20.288;2023-04-15T12:18:36;0.43;;;0.10;;
76714;SDS011;65644;44.990;20.288;2023-04-15T12:21:09;0.85;;;0.10;;
76714;SDS011;65644;44.990;20.288;2023-04-15T12:23:36;1.25;;;0.10;;
76714;SDS011;65644;44.990;20.288;2023-04-15T12:26:07;0.75;;;0.10;;
76714;SDS011;65644;44.990;20.288;2023-04-15T12:28:35;0.90;;;0.20;;
76714;SDS011;65644;44.990;20.288;2023-04-15T12:31:10;1.23;;;0.10;;
76714;SDS011;65644;44.990;20.288;2023-04-15T12:33:39;0.60;;;0.10;;
76714;SDS011;65644;44.990;20.288;2023-04-15T12:36:06;1.25;;;0.15;;
76714;SDS011;65644;44.990;20.288;2023-04-15T12:38:32;2.92;;;1.25;;
76714;SDS011;65644;44.990;20.288;2023-04-15T12:40:58;1.80;;;0.30;;
76714;SDS011;65644;44.990;20.288;2023-04-15T12:43:24;1.13;;;0.47;;
76714;SDS011;65644;44.990;20.288;2023-04-15T12:45:51;0.60;;;0.50;;
76714;SDS011;65644;44.990;20.288;2023-04-15T12:48:17;0.68;;;0.43;;
76714;SDS011;65644;44.990;20.288;2023-04-15T12:50:43;0.63;;;0.10;;
76714;SDS011;65644;44.990;20.288;2023-04-15T12:53:09;0.30;;;0.10;;
76714;SDS011;65644;44.990;20.288;2023-04-15T12:55:35;0.73;;;0.10;;
76714;SDS011;65644;44.990;20.288;2023-04-15T12:58:01;2.38;;;0.10;;
76714;SDS011;65644;44.990;20.288;2023-04-15T13:00:27;1.08;;;0.13;;
76714;SDS011;65644;44.990;20.288;2023-04-15T13:02:53;0.28;;;0.10;;
76714;SDS011;65644;44.990;20.288;2023-04-15T13:05:20;0.38;;;0.10;;
76714;SDS011;65644;44.990;20.288;2023-04-15T13:07:46;0.70;;;0.20;;
76714;SDS011;65644;44.990;20.288;2023-04-15T13:10:12;1.70;;;0.10;;
76714;SDS011;65644;44.990;20.288;2023-04-15T13:12:38;1.58;;;0.63;;
76714;SDS011;65644;44.990;20.288;2023-04-15T13:15:05;0.95;;;0.43;;
76714;SDS011;65644;44.990;20.288;2023-04-15T13:17:33;2.47;;;1.13;;
76714;SDS011;65644;44.990;20.288;2023-04-15T13:19:59;1.63;;;1.15;;
76714;SDS011;65644;44.990;20.288;2023-04-15T13:22:25;1.42;;;0.25;;
76714;SDS011;65644;44.990;20.288;2023-04-15T13:24:51;1.23;;;0.30;;
76714;SDS011;65644;44.990;20.288;2023-04-15T13:27:17;0.47;;;0.17;;
76714;SDS011;65644;44.990;20.288;2023-04-15T13:29:43;1.83;;;0.30;;
76714;SDS011;65644;44.990;20.288;2023-04-15T13:32:09;0.82;;;0.20;;
76714;SDS011;65644;44.990;20.288;2023-04-15T13:34:35;0.75;;;0.10;;
76714;SDS011;65644;44.990;20.288;2023-04-15T13:37:05;0.50;;;0.10;;
76714;SDS011;65644;44.990;20.288;2023-04-15T13:39:31;0.50;;;0.10;;
76714;SDS011;65644;44.990;20.288;2023-04-15T13:41:57;1.25;;;0.28;;
76714;SDS011;65644;44.990;20.288;2023-04-15T13:44:23;0.88;;;0.40;;
76714;SDS011;65644;44.990;20.288;2023-04-15T13:46:53;1.20;;;0.30;;
76714;SDS011;65644;44.990;20.288;2023-04-15T13:49:19;1.60;;;0.30;;
76714;SDS011;65644;44.990;20.288;2023-04-15T13:51:45;1.95;;;0.17;;
76714;SDS011;65644;44.990;20.288;2023-04-15T13:54:11;1.88;;;0.30;;
76714;SDS011;65644;44.990;20.288;2023-04-15T13:56:37;1.10;;;0.30;;
76714;SDS011;65644;44.990;20.288;2023-04-15T13:59:05;2.15;;;0.10;;
76714;SDS011;65644;44.990;20.288;2023-04-15T14:01:33;1.45;;;0.13;;
76714;SDS011;65644;44.990;20.288;2023-04-15T14:03:59;1.75;;;0.43;;
76714;SDS011;65644;44.990;20.288;2023-04-15T14:06:25;0.75;;;0.40;;
76714;SDS011;65644;44.990;20.288;2023-04-15T14:08:52;2.00;;;0.20;;
76714;SDS011;65644;44.990;20.288;2023-04-15T14:11:18;2.20;;;0.30;;
76714;SDS011;65644;44.990;20.288;2023-04-15T14:13:44;3.95;;;0.88;;
76714;SDS011;65644;44.990;20.288;2023-04-15T14:16:10;3.40;;;0.77;;
76714;SDS011;65644;44.990;20.288;2023-04-15T14:18:36;1.63;;;0.40;;
76714;SDS011;65644;44.990;20.288;2023-04-15T14:21:02;2.25;;;0.30;;
76714;SDS011;65644;44.990;20.288;2023-04-15T14:23:28;0.70;;;0.30;;
76714;SDS011;65644;44.990;20.288;2023-04-15T14:25:54;1.85;;;0.30;;
76714;SDS011;65644;44.990;20.288;2023-04-15T14:28:20;1.63;;;0.55;;
76714;SDS011;65644;44.990;20.288;2023-04-15T14:30:46;1.13;;;0.22;;
76714;SDS011;65644;44.990;20.288;2023-04-15T14:33:12;0.55;;;0.15;;
76714;SDS011;65644;44.990;20.288;2023-04-15T14:35:38;2.47;;;0.30;;
76714;SDS011;65644;44.990;20.288;2023-04-15T14:38:04;1.85;;;0.30;;
76714;SDS011;65644;44.990;20.288;2023-04-15T14:40:34;2.60;;;0.40;;
76714;SDS011;65644;44.990;20.288;2023-04-15T14:43:00;2.75;;;0.50;;
76714;SDS011;65644;44.990;20.288;2023-04-15T14:45:26;1.85;;;0.30;;
76714;SDS011;65644;44.990;20.288;2023-04-15T14:47:52;0.73;;;0.30;;